sensor_id;sensor_type;location;lat;lon;timestamp;P1;durP1;ratioP1;P2;durP2;ratioP2
55136;SDS011;41032;47.818;-3.732;2023-03-01T16:13:45;1.98;;;1.10;;
55136;SDS011;41032;47.818;-3.732;2023-03-01T16:16:14;1.95;;;1.13;;
55136;SDS011;41032;47.818;-3.732;2023-03-01T16:18:42;2.05;;;1.40;;
55136;SDS011;41032;47.818;-3.732;2023-03-01T16:21:12;2.33;;;1.10;;
55136;SDS011;41032;47.818;-3.732;2023-03-01T16:23:46;2.35;;;1.00;;
55136;SDS011;41032;47.818;-3.732;2023-03-01T16:26:14;2.22;;;1.50;;
55136;SDS011;41032;47.818;-3.732;2023-03-01T16:28:42;1.83;;;0.85;;
55136;SDS011;41032;47.818;-3.732;2023-03-01T16:31:09;2.13;;;1.10;;
55136;SDS011;41032;47.818;-3.732;2023-03-01T16:33:37;3.00;;;1.10;;
55136;SDS011;41032;47.818;-3.732;2023-03-01T16:36:15;1.55;;;0.80;;
55136;SDS011;41032;47.818;-3.732;2023-03-01T16:38:43;2.00;;;0.93;;
55136;SDS011;41032;47.818;-3.732;2023-03-01T16:41:12;2.60;;;1.30;;
55136;SDS011;41032;47.818;-3.732;2023-03-01T16:43:41;2.70;;;1.15;;
55136;SDS011;41032;47.818;-3.732;2023-03-01T16:46:09;2.10;;;0.98;;
55136;SDS011;41032;47.818;-3.732;2023-03-01T16:48:47;2.67;;;0.95;;
55136;SDS011;41032;47.818;-3.732;2023-03-01T16:51:15;4.28;;;1.50;;
55136;SDS011;41032;47.818;-3.732;2023-03-01T16:53:43;5.15;;;1.13;;
55136;SDS011;41032;47.818;-3.732;2023-03-01T16:56:11;1.45;;;0.90;;
55136;SDS011;41032;47.818;-3.732;2023-03-01T16:58:39;3.75;;;1.10;;
55136;SDS011;41032;47.818;-3.732;2023-03-01T17:01:08;1.65;;;1.00;;
55136;SDS011;41032;47.818;-3.732;2023-03-01T17:03:41;1.80;;;1.00;;
55136;SDS011;41032;47.818;-3.732;2023-03-01T17:06:11;3.38;;;1.33;;
55136;SDS011;41032;47.818;-3.732;2023-03-01T17:08:41;3.90;;;1.38;;
55136;SDS011;41032;47.818;-3.732;2023-03-01T17:11:09;4.55;;;1.40;;
55136;SDS011;41032;47.818;-3.732;2023-03-01T17:13:38;1.67;;;0.95;;
55136;SDS011;41032;47.818;-3.732;2023-03-01T17:16:07;1.85;;;1.02;;
55136;SDS011;41032;47.818;-3.732;2023-03-01T17:18:36;2.40;;;1.10;;
55136;SDS011;41032;47.818;-3.732;2023-03-01T17:21:05;7.10;;;1.10;;
55136;SDS011;41032;47.818;-3.732;2023-03-01T17:23:34;3.13;;;1.40;;
55136;SDS011;41032;47.818;-3.732;2023-03-01T17:26:03;2.25;;;1.40;;
55136;SDS011;41032;47.818;-3.732;2023-03-01T17:28:35;4.25;;;1.08;;
55136;SDS011;41032;47.818;-3.732;2023-03-01T17:31:04;3.10;;;1.40;;
55136;SDS011;41032;47.818;-3.732;2023-03-01T17:33:33;12.73;;;7.95;;
55136;SDS011;41032;47.818;-3.732;2023-03-01T17:36:01;20.65;;;12.38;;
55136;SDS011;41032;47.818;-3.732;2023-03-01T17:38:29;21.50;;;12.98;;
55136;SDS011;41032;47.818;-3.732;2023-03-01T17:40:58;37.60;;;23.40;;
55136;SDS011;41032;47.818;-3.732;2023-03-01T17:43:27;54.67;;;32.22;;
55136;SDS011;41032;47.818;-3.732;2023-03-01T17:45:56;59.20;;;38.33;;
55136;SDS011;41032;47.818;-3.732;2023-03-01T17:48:25;74.13;;;48.60;;
55136;SDS011;41032;47.818;-3.732;2023-03-01T17:50:52;95.80;;;61.13;;
55136;SDS011;41032;47.818;-3.732;2023-03-01T17:53:20;95.97;;;65.38;;
55136;SDS011;41032;47.818;-3.732;2023-03-01T17:55:48;107.50;;;70.63;;
55136;SDS011;41032;47.818;-3.732;2023-03-01T17:58:24;114.88;;;76.85;;
55136;SDS011;41032;47.818;-3.732;2023-03-01T18:00:52;121.80;;;81.43;;
55136;SDS011;41032;47.818;-3.732;2023-03-01T18:03:20;131.35;;;84.35;;
55136;SDS011;41032;47.818;-3.732;2023-03-01T18:05:48;129.57;;;88.13;;
55136;SDS011;41032;47.818;-3.732;2023-03-01T18:08:16;136.05;;;93.53;;
55136;SDS011;41032;47.818;-3.732;2023-03-01T18:10:44;151.60;;;101.65;;
55136;SDS011;41032;47.818;-3.732;2023-03-01T18:13:13;146.90;;;101.63;;
55136;SDS011;41032;47.818;-3.732;2023-03-01T18:15:41;157.23;;;106.50;;
55136;SDS011;41032;47.818;-3.732;2023-03-01T18:18:08;164.25;;;111.03;;
55136;SDS011;41032;47.818;-3.732;2023-03-01T18:20:37;162.18;;;110.85;;
55136;SDS011;41032;47.818;-3.732;2023-03-01T18:23:04;177.52;;;119.22;;
55136;SDS011;41032;47.818;-3.732;2023-03-01T18:25:32;176.55;;;116.80;;
55136;SDS011;41032;47.818;-3.732;2023-03-01T18:28:00;170.43;;;116.85;;
55136;SDS011;41032;47.818;-3.732;2023-03-01T18:30:29;192.27;;;128.65;;
55136;SDS011;41032;47.818;-3.732;2023-03-01T18:32:58;186.20;;;129.23;;
55136;SDS011;41032;47.818;-3.732;2023-03-01T18:35:25;199.40;;;133.88;;
55136;SDS011;41032;47.818;-3.732;2023-03-01T18:37:56;202.90;;;137.85;;
55136;SDS011;41032;47.818;-3.732;2023-03-01T18:40:24;194.35;;;135.52;;
55136;SDS011;41032;47.818;-3.732;2023-03-01T18:42:52;209.48;;;141.15;;
55136;SDS011;41032;47.818;-3.732;2023-03-01T18:45:20;203.18;;;142.20;;
55136;SDS011;41032;47.818;-3.732;2023-03-01T18:47:48;208.50;;;142.65;;
55136;SDS011;41032;47.818;-3.732;2023-03-01T18:50:16;205.68;;;146.90;;
55136;SDS011;41032;47.818;-3.732;2023-03-01T18:52:45;219.15;;;151.35;;
55136;SDS011;41032;47.818;-3.732;2023-03-01T18:55:13;233.52;;;157.10;;
55136;SDS011;41032;47.818;-3.732;2023-03-01T18:57:41;208.95;;;150.63;;
55136;SDS011;41032;47.818;-3.732;2023-03-01T19:00:09;218.20;;;151.93;;
55136;SDS011;41032;47.818;-3.732;2023-03-01T19:02:37;219.73;;;151.50;;
55136;SDS011;41032;47.818;-3.732;2023-03-01T19:05:06;231.27;;;161.60;;
55136;SDS011;41032;47.818;-3.732;2023-03-01T19:07:33;235.30;;;156.65;;
55136;SDS011;41032;47.818;-3.732;2023-03-01T19:10:01;224.55;;;154.68;;
55136;SDS011;41032;47.818;-3.732;2023-03-01T19:12:29;235.15;;;156.82;;
55136;SDS011;41032;47.818;-3.732;2023-03-01T19:14:57;244.57;;;164.40;;
55136;SDS011;41032;47.818;-3.732;2023-03-01T19:17:25;244.23;;;163.75;;
55136;SDS011;41032;47.818;-3.732;2023-03-01T19:19:56;247.10;;;169.40;;
55136;SDS011;41032;47.818;-3.732;2023-03-01T19:22:23;241.35;;;168.40;;
55136;SDS011;41032;47.818;-3.732;2023-03-01T19:24:53;236.55;;;167.60;;
55136;SDS011;41032;47.818;-3.732;2023-03-01T19:27:21;239.35;;;167.30;;
55136;SDS011;41032;47.818;-3.732;2023-03-01T19:29:49;241.65;;;169.35;;
55136;SDS011;41032;47.818;-3.732;2023-03-01T19:32:17;246.93;;;171.93;;
55136;SDS011;41032;47.818;-3.732;2023-03-01T19:34:44;226.93;;;162.73;;
55136;SDS011;41032;47.818;-3.732;2023-03-01T19:37:12;259.23;;;178.43;;
55136;SDS011;41032;47.818;-3.732;2023-03-01T19:39:40;261.92;;;182.00;;
55136;SDS011;41032;47.818;-3.732;2023-03-01T19:42:09;252.68;;;180.32;;
55136;SDS011;41032;47.818;-3.732;2023-03-01T19:44:37;251.02;;;174.45;;
55136;SDS011;41032;47.818;-3.732;2023-03-01T19:47:06;258.27;;;180.60;;
55136;SDS011;41032;47.818;-3.732;2023-03-01T19:49:33;262.70;;;179.43;;
55136;SDS011;41032;47.818;-3.732;2023-03-01T19:52:03;260.13;;;182.30;;
55136;SDS011;41032;47.818;-3.732;2023-03-01T19:54:31;259.48;;;181.95;;
55136;SDS011;41032;47.818;-3.732;2023-03-01T19:56:59;269.40;;;189.30;;
55136;SDS011;41032;47.818;-3.732;2023-03-01T19:59:28;275.15;;;193.25;;
55136;SDS011;41032;47.818;-3.732;2023-03-01T20:01:57;277.10;;;195.63;;
55136;SDS011;41032;47.818;-3.732;2023-03-01T20:04:25;290.20;;;199.43;;
55136;SDS011;41032;47.818;-3.732;2023-03-01T20:06:54;267.67;;;191.05;;
55136;SDS011;41032;47.818;-3.732;2023-03-01T20:09:23;264.75;;;182.63;;
55136;SDS011;41032;47.818;-3.732;2023-03-01T20:11:51;260.10;;;186.38;;
55136;SDS011;41032;47.818;-3.732;2023-03-01T20:14:20;276.33;;;190.20;;
55136;SDS011;41032;47.818;-3.732;2023-03-01T20:16:48;276.27;;;188.93;;
55136;SDS011;41032;47.818;-3.732;2023-03-01T20:19:17;270.77;;;194.80;;
55136;SDS011;41032;47.818;-3.732;2023-03-01T20:21:46;273.40;;;195.77;;
55136;SDS011;41032;47.818;-3.732;2023-03-01T20:24:14;272.92;;;195.85;;
55136;SDS011;41032;47.818;-3.732;2023-03-01T20:26:44;270.55;;;193.88;;
55136;SDS011;41032;47.818;-3.732;2023-03-01T20:29:12;283.33;;;198.75;;
55136;SDS011;41032;47.818;-3.732;2023-03-01T20:31:40;290.00;;;202.93;;
55136;SDS011;41032;47.818;-3.732;2023-03-01T20:34:09;276.80;;;194.82;;
55136;SDS011;41032;47.818;-3.732;2023-03-01T20:36:38;279.48;;;202.85;;
55136;SDS011;41032;47.818;-3.732;2023-03-01T20:39:06;275.70;;;199.38;;
55136;SDS011;41032;47.818;-3.732;2023-03-01T20:41:37;282.30;;;202.25;;
55136;SDS011;41032;47.818;-3.732;2023-03-01T20:44:05;288.73;;;199.77;;
55136;SDS011;41032;47.818;-3.732;2023-03-01T20:46:34;276.40;;;190.43;;
55136;SDS011;41032;47.818;-3.732;2023-03-01T20:49:02;265.92;;;192.85;;
55136;SDS011;41032;47.818;-3.732;2023-03-01T20:51:32;272.17;;;196.13;;
55136;SDS011;41032;47.818;-3.732;2023-03-01T20:54:00;285.77;;;196.75;;
55136;SDS011;41032;47.818;-3.732;2023-03-01T20:56:28;284.77;;;203.57;;
55136;SDS011;41032;47.818;-3.732;2023-03-01T20:58:56;282.92;;;201.23;;
55136;SDS011;41032;47.818;-3.732;2023-03-01T21:01:24;289.40;;;207.40;;
55136;SDS011;41032;47.818;-3.732;2023-03-01T21:03:53;278.75;;;201.55;;
55136;SDS011;41032;47.818;-3.732;2023-03-01T21:06:22;286.80;;;203.88;;
55136;SDS011;41032;47.818;-3.732;2023-03-01T21:08:50;288.90;;;207.98;;
55136;SDS011;41032;47.818;-3.732;2023-03-01T21:11:20;286.95;;;209.93;;
55136;SDS011;41032;47.818;-3.732;2023-03-01T21:13:52;297.25;;;212.07;;
55136;SDS011;41032;47.818;-3.732;2023-03-01T21:16:21;302.48;;;209.05;;
55136;SDS011;41032;47.818;-3.732;2023-03-01T21:18:50;294.25;;;212.23;;
55136;SDS011;41032;47.818;-3.732;2023-03-01T21:21:20;303.50;;;214.25;;
55136;SDS011;41032;47.818;-3.732;2023-03-01T21:23:48;289.58;;;210.40;;
55136;SDS011;41032;47.818;-3.732;2023-03-01T21:26:19;294.30;;;209.85;;
55136;SDS011;41032;47.818;-3.732;2023-03-01T21:28:52;306.50;;;221.63;;
55136;SDS011;41032;47.818;-3.732;2023-03-01T21:31:23;296.77;;;213.23;;
55136;SDS011;41032;47.818;-3.732;2023-03-01T21:33:54;305.90;;;218.02;;
55136;SDS011;41032;47.818;-3.732;2023-03-01T21:36:24;299.88;;;213.88;;
55136;SDS011;41032;47.818;-3.732;2023-03-01T21:38:54;295.67;;;216.57;;
55136;SDS011;41032;47.818;-3.732;2023-03-01T21:41:23;298.25;;;214.40;;
55136;SDS011;41032;47.818;-3.732;2023-03-01T21:43:53;313.65;;;217.15;;
55136;SDS011;41032;47.818;-3.732;2023-03-01T21:46:22;304.80;;;214.68;;
55136;SDS011;41032;47.818;-3.732;2023-03-01T21:48:51;299.02;;;214.25;;
55136;SDS011;41032;47.818;-3.732;2023-03-01T21:51:20;294.77;;;212.48;;
55136;SDS011;41032;47.818;-3.732;2023-03-01T21:53:48;305.30;;;218.95;;
55136;SDS011;41032;47.818;-3.732;2023-03-01T21:56:18;305.98;;;219.18;;
55136;SDS011;41032;47.818;-3.732;2023-03-01T21:58:47;307.63;;;219.48;;
55136;SDS011;41032;47.818;-3.732;2023-03-01T22:01:17;303.38;;;218.95;;
55136;SDS011;41032;47.818;-3.732;2023-03-01T22:03:49;323.65;;;222.30;;
55136;SDS011;41032;47.818;-3.732;2023-03-01T22:06:20;309.08;;;218.52;;
55136;SDS011;41032;47.818;-3.732;2023-03-01T22:08:51;309.10;;;220.50;;
55136;SDS011;41032;47.818;-3.732;2023-03-01T22:11:22;313.73;;;223.57;;
55136;SDS011;41032;47.818;-3.732;2023-03-01T22:13:52;318.23;;;225.85;;
55136;SDS011;41032;47.818;-3.732;2023-03-01T22:16:23;317.45;;;232.57;;
55136;SDS011;41032;47.818;-3.732;2023-03-01T22:18:53;315.67;;;227.10;;
55136;SDS011;41032;47.818;-3.732;2023-03-01T22:21:22;316.92;;;228.63;;
55136;SDS011;41032;47.818;-3.732;2023-03-01T22:23:52;327.45;;;235.35;;
55136;SDS011;41032;47.818;-3.732;2023-03-01T22:26:22;325.30;;;238.95;;
55136;SDS011;41032;47.818;-3.732;2023-03-01T22:31:25;313.80;;;229.77;;
55136;SDS011;41032;47.818;-3.732;2023-03-01T22:33:53;318.10;;;229.40;;
55136;SDS011;41032;47.818;-3.732;2023-03-01T22:36:23;324.05;;;233.60;;
55136;SDS011;41032;47.818;-3.732;2023-03-01T22:38:51;329.88;;;233.45;;
55136;SDS011;41032;47.818;-3.732;2023-03-01T22:41:26;326.05;;;232.57;;
55136;SDS011;41032;47.818;-3.732;2023-03-01T22:43:55;328.35;;;238.27;;
55136;SDS011;41032;47.818;-3.732;2023-03-01T22:46:23;321.80;;;235.77;;
55136;SDS011;41032;47.818;-3.732;2023-03-01T22:48:52;333.50;;;234.68;;
55136;SDS011;41032;47.818;-3.732;2023-03-01T22:51:23;330.55;;;237.00;;
55136;SDS011;41032;47.818;-3.732;2023-03-01T22:53:53;340.05;;;240.38;;
55136;SDS011;41032;47.818;-3.732;2023-03-01T22:56:23;326.30;;;238.02;;
55136;SDS011;41032;47.818;-3.732;2023-03-01T22:58:54;322.10;;;236.23;;
55136;SDS011;41032;47.818;-3.732;2023-03-01T23:01:24;340.30;;;242.50;;
55136;SDS011;41032;47.818;-3.732;2023-03-01T23:03:53;346.73;;;242.40;;
55136;SDS011;41032;47.818;-3.732;2023-03-01T23:06:22;342.67;;;243.60;;
55136;SDS011;41032;47.818;-3.732;2023-03-01T23:08:52;328.35;;;239.60;;
55136;SDS011;41032;47.818;-3.732;2023-03-01T23:11:22;331.85;;;237.70;;
55136;SDS011;41032;47.818;-3.732;2023-03-01T23:13:51;339.20;;;240.15;;
55136;SDS011;41032;47.818;-3.732;2023-03-01T23:16:20;328.08;;;236.80;;
55136;SDS011;41032;47.818;-3.732;2023-03-01T23:18:52;319.40;;;237.30;;
55136;SDS011;41032;47.818;-3.732;2023-03-01T23:21:23;330.83;;;234.77;;
55136;SDS011;41032;47.818;-3.732;2023-03-01T23:23:52;331.40;;;235.43;;
55136;SDS011;41032;47.818;-3.732;2023-03-01T23:26:24;336.90;;;237.32;;
55136;SDS011;41032;47.818;-3.732;2023-03-01T23:28:53;335.48;;;239.90;;
55136;SDS011;41032;47.818;-3.732;2023-03-01T23:31:22;333.67;;;243.90;;
55136;SDS011;41032;47.818;-3.732;2023-03-01T23:33:54;342.17;;;243.93;;
55136;SDS011;41032;47.818;-3.732;2023-03-01T23:36:25;341.00;;;240.70;;
55136;SDS011;41032;47.818;-3.732;2023-03-01T23:38:56;330.85;;;238.02;;
55136;SDS011;41032;47.818;-3.732;2023-03-01T23:41:28;328.25;;;240.68;;
55136;SDS011;41032;47.818;-3.732;2023-03-01T23:43:59;333.67;;;240.35;;
55136;SDS011;41032;47.818;-3.732;2023-03-01T23:46:30;347.67;;;242.65;;
55136;SDS011;41032;47.818;-3.732;2023-03-01T23:48:59;332.58;;;239.90;;
55136;SDS011;41032;47.818;-3.732;2023-03-01T23:51:29;337.77;;;240.45;;
55136;SDS011;41032;47.818;-3.732;2023-03-01T23:53:59;334.80;;;244.57;;
55136;SDS011;41032;47.818;-3.732;2023-03-01T23:56:32;334.88;;;233.77;;
55136;SDS011;41032;47.818;-3.732;2023-03-01T23:59:03;331.92;;;244.50;;
